sensor_id;sensor_type;location;lat;lon;timestamp;pressure;altitude;pressure_sealevel;temperature;humidity
60974;BME280;46846;51.528;5.076;2023-05-01T00:01:04;101216.97;;;14.45;65.75
60974;BME280;46846;51.528;5.076;2023-05-01T00:03:30;101212.63;;;14.43;65.76
60974;BME280;46846;51.528;5.076;2023-05-01T00:05:59;101212.78;;;14.40;65.77
60974;BME280;46846;51.528;5.076;2023-05-01T00:08:25;101206.63;;;14.38;65.62
60974;BME280;46846;51.528;5.076;2023-05-01T00:10:50;101204.00;;;14.36;65.69
60974;BME280;46846;51.528;5.076;2023-05-01T00:13:15;101196.66;;;14.41;65.79
60974;BME280;46846;51.528;5.076;2023-05-01T00:15:45;101203.94;;;14.38;65.64
60974;BME280;46846;51.528;5.076;2023-05-01T00:18:11;101198.72;;;14.34;65.58
60974;BME280;46846;51.528;5.076;2023-05-01T00:20:36;101190.00;;;14.29;65.68
60974;BME280;46846;51.528;5.076;2023-05-01T00:23:01;101192.69;;;14.29;65.63
60974;BME280;46846;51.528;5.076;2023-05-01T00:25:27;101184.75;;;14.28;65.63
60974;BME280;46846;51.528;5.076;2023-05-01T00:27:52;101172.38;;;14.25;65.58
60974;BME280;46846;51.528;5.076;2023-05-01T00:30:18;101178.66;;;14.24;65.64
60974;BME280;46846;51.528;5.076;2023-05-01T00:32:43;101184.06;;;14.22;65.57
60974;BME280;46846;51.528;5.076;2023-05-01T00:35:08;101176.78;;;14.26;65.18
60974;BME280;46846;51.528;5.076;2023-05-01T00:37:33;101168.91;;;14.23;65.51
60974;BME280;46846;51.528;5.076;2023-05-01T00:39:59;101168.00;;;14.22;65.18
60974;BME280;46846;51.528;5.076;2023-05-01T00:42:24;101166.22;;;14.23;65.04
60974;BME280;46846;51.528;5.076;2023-05-01T00:44:49;101163.66;;;14.20;65.19
60974;BME280;46846;51.528;5.076;2023-05-01T00:47:15;101154.91;;;14.16;65.05
60974;BME280;46846;51.528;5.076;2023-05-01T00:49:41;101147.88;;;14.14;65.31
60974;BME280;46846;51.528;5.076;2023-05-01T00:52:06;101151.38;;;14.16;65.27
60974;BME280;46846;51.528;5.076;2023-05-01T00:54:34;101144.41;;;14.12;65.03
60974;BME280;46846;51.528;5.076;2023-05-01T00:56:59;101142.66;;;14.11;65.11
60974;BME280;46846;51.528;5.076;2023-05-01T00:59:25;101143.72;;;14.06;65.08
60974;BME280;46846;51.528;5.076;2023-05-01T01:01:50;101143.09;;;14.01;65.38
60974;BME280;46846;51.528;5.076;2023-05-01T01:04:16;101135.06;;;14.01;65.35
60974;BME280;46846;51.528;5.076;2023-05-01T01:06:46;101129.91;;;13.97;65.33
60974;BME280;46846;51.528;5.076;2023-05-01T01:11:52;101128.28;;;13.92;65.45
60974;BME280;46846;51.528;5.076;2023-05-01T01:15:25;101123.09;;;13.89;65.40
60974;BME280;46846;51.528;5.076;2023-05-01T01:17:22;101123.28;;;13.85;65.43
60974;BME280;46846;51.528;5.076;2023-05-01T01:22:18;101122.47;;;13.83;65.56
60974;BME280;46846;51.528;5.076;2023-05-01T01:35:18;101105.03;;;13.74;65.62
60974;BME280;46846;51.528;5.076;2023-05-01T01:37:48;101104.09;;;13.75;65.23
60974;BME280;46846;51.528;5.076;2023-05-01T01:40:17;101089.06;;;13.72;65.56
60974;BME280;46846;51.528;5.076;2023-05-01T01:42:48;101086.44;;;13.71;65.46
60974;BME280;46846;51.528;5.076;2023-05-01T01:45:28;101087.31;;;13.71;65.41
60974;BME280;46846;51.528;5.076;2023-05-01T01:47:54;101082.09;;;13.68;65.39
60974;BME280;46846;51.528;5.076;2023-05-01T01:50:21;101072.28;;;13.69;65.50
60974;BME280;46846;51.528;5.076;2023-05-01T01:52:48;101076.75;;;13.68;65.26
60974;BME280;46846;51.528;5.076;2023-05-01T01:55:14;101065.41;;;13.63;65.30
60974;BME280;46846;51.528;5.076;2023-05-01T01:57:40;101071.88;;;13.57;65.40
60974;BME280;46846;51.528;5.076;2023-05-01T02:00:08;101067.41;;;13.58;65.53
60974;BME280;46846;51.528;5.076;2023-05-01T02:02:35;101066.47;;;13.59;65.44
60974;BME280;46846;51.528;5.076;2023-05-01T02:05:07;101065.72;;;13.55;65.34
60974;BME280;46846;51.528;5.076;2023-05-01T02:07:33;101061.31;;;13.54;65.36
60974;BME280;46846;51.528;5.076;2023-05-01T02:09:59;101069.59;;;13.48;65.43
60974;BME280;46846;51.528;5.076;2023-05-01T02:12:26;101057.91;;;13.50;64.88
60974;BME280;46846;51.528;5.076;2023-05-01T02:14:52;101054.50;;;13.47;65.39
60974;BME280;46846;51.528;5.076;2023-05-01T02:17:18;101053.72;;;13.43;65.34
60974;BME280;46846;51.528;5.076;2023-05-01T02:19:44;101048.53;;;13.40;65.54
60974;BME280;46846;51.528;5.076;2023-05-01T02:22:10;101048.59;;;13.38;65.56
60974;BME280;46846;51.528;5.076;2023-05-01T02:24:36;101045.97;;;13.37;65.51
60974;BME280;46846;51.528;5.076;2023-05-01T02:27:05;101039.81;;;13.35;65.45
60974;BME280;46846;51.528;5.076;2023-05-01T02:29:31;101037.16;;;13.35;65.32
60974;BME280;46846;51.528;5.076;2023-05-01T02:31:58;101032.53;;;13.38;65.16
60974;BME280;46846;51.528;5.076;2023-05-01T02:34:23;101035.16;;;13.40;64.81
60974;BME280;46846;51.528;5.076;2023-05-01T02:36:49;101031.66;;;13.38;65.31
60974;BME280;46846;51.528;5.076;2023-05-01T02:39:14;101026.56;;;13.32;65.30
60974;BME280;46846;51.528;5.076;2023-05-01T02:41:40;101026.66;;;13.30;65.09
60974;BME280;46846;51.528;5.076;2023-05-01T02:44:06;101026.56;;;13.32;65.22
60974;BME280;46846;51.528;5.076;2023-05-01T02:46:33;101017.75;;;13.30;63.71
60974;BME280;46846;51.528;5.076;2023-05-01T02:48:59;101022.91;;;13.34;64.40
60974;BME280;46846;51.528;5.076;2023-05-01T02:51:26;101021.22;;;13.32;64.32
60974;BME280;46846;51.528;5.076;2023-05-01T02:53:52;101019.50;;;13.31;64.58
60974;BME280;46846;51.528;5.076;2023-05-01T02:56:18;101012.69;;;13.23;64.78
60974;BME280;46846;51.528;5.076;2023-05-01T02:58:43;101016.44;;;13.19;64.94
60974;BME280;46846;51.528;5.076;2023-05-01T03:01:09;101011.19;;;13.16;65.23
60974;BME280;46846;51.528;5.076;2023-05-01T03:03:35;101009.41;;;13.17;63.93
60974;BME280;46846;51.528;5.076;2023-05-01T03:06:01;101011.34;;;13.13;64.89
60974;BME280;46846;51.528;5.076;2023-05-01T03:08:27;101006.16;;;13.10;65.28
60974;BME280;46846;51.528;5.076;2023-05-01T03:10:52;101003.63;;;13.05;65.33
60974;BME280;46846;51.528;5.076;2023-05-01T03:13:17;100994.88;;;13.02;65.26
60974;BME280;46846;51.528;5.076;2023-05-01T03:15:43;100995.81;;;13.01;65.46
60974;BME280;46846;51.528;5.076;2023-05-01T03:18:08;100997.69;;;12.98;65.36
60974;BME280;46846;51.528;5.076;2023-05-01T03:20:33;100994.28;;;12.95;65.32
60974;BME280;46846;51.528;5.076;2023-05-01T03:22:59;100995.22;;;12.94;65.39
60974;BME280;46846;51.528;5.076;2023-05-01T03:25:24;100985.53;;;12.91;65.56
60974;BME280;46846;51.528;5.076;2023-05-01T03:27:49;100991.81;;;12.90;65.42
60974;BME280;46846;51.528;5.076;2023-05-01T03:30:15;100990.13;;;12.88;65.39
60974;BME280;46846;51.528;5.076;2023-05-01T03:32:41;100992.00;;;12.85;65.46
60974;BME280;46846;51.528;5.076;2023-05-01T03:35:06;100984.06;;;12.84;65.38
60974;BME280;46846;51.528;5.076;2023-05-01T03:37:32;100989.44;;;12.82;65.59
60974;BME280;46846;51.528;5.076;2023-05-01T03:39:58;100984.19;;;12.81;65.76
60974;BME280;46846;51.528;5.076;2023-05-01T03:42:23;100978.91;;;12.79;65.50
60974;BME280;46846;51.528;5.076;2023-05-01T03:44:48;100984.31;;;12.78;65.49
60974;BME280;46846;51.528;5.076;2023-05-01T03:47:14;100981.63;;;12.78;65.47
60974;BME280;46846;51.528;5.076;2023-05-01T03:49:40;100975.50;;;12.76;65.71
60974;BME280;46846;51.528;5.076;2023-05-01T03:52:07;100972.97;;;12.73;65.40
60974;BME280;46846;51.528;5.076;2023-05-01T03:54:32;100970.34;;;12.71;65.60
60974;BME280;46846;51.528;5.076;2023-05-01T03:56:58;100974.00;;;12.68;65.54
60974;BME280;46846;51.528;5.076;2023-05-01T03:59:24;100966.94;;;12.67;65.83
60974;BME280;46846;51.528;5.076;2023-05-01T04:01:50;100967.00;;;12.66;65.78
60974;BME280;46846;51.528;5.076;2023-05-01T04:04:15;100967.03;;;12.64;65.67
60974;BME280;46846;51.528;5.076;2023-05-01T04:06:40;100965.31;;;12.63;65.49
60974;BME280;46846;51.528;5.076;2023-05-01T04:09:06;100956.50;;;12.61;65.86
60974;BME280;46846;51.528;5.076;2023-05-01T04:11:32;100953.91;;;12.60;65.30
60974;BME280;46846;51.528;5.076;2023-05-01T04:13:57;100951.31;;;12.58;65.53
60974;BME280;46846;51.528;5.076;2023-05-01T04:16:23;100955.78;;;12.57;65.49
60974;BME280;46846;51.528;5.076;2023-05-01T04:18:48;100954.97;;;12.55;65.80
60974;BME280;46846;51.528;5.076;2023-05-01T04:21:13;100950.47;;;12.56;65.75
60974;BME280;46846;51.528;5.076;2023-05-01T04:23:41;100951.41;;;12.55;65.34
60974;BME280;46846;51.528;5.076;2023-05-01T04:26:06;100947.94;;;12.53;65.47
60974;BME280;46846;51.528;5.076;2023-05-01T04:28:32;100947.16;;;12.51;65.40
60974;BME280;46846;51.528;5.076;2023-05-01T04:30:57;100950.72;;;12.50;65.69
60974;BME280;46846;51.528;5.076;2023-05-01T04:33:23;100940.19;;;12.47;65.39
60974;BME280;46846;51.528;5.076;2023-05-01T04:35:48;100946.47;;;12.46;65.83
60974;BME280;46846;51.528;5.076;2023-05-01T04:38:14;100943.00;;;12.43;65.49
60974;BME280;46846;51.528;5.076;2023-05-01T04:40:39;100939.50;;;12.41;65.60
60974;BME280;46846;51.528;5.076;2023-05-01T04:43:05;100937.72;;;12.42;65.81
60974;BME280;46846;51.528;5.076;2023-05-01T04:45:30;100929.84;;;12.39;65.82
60974;BME280;46846;51.528;5.076;2023-05-01T04:47:56;100944.09;;;12.38;65.88
60974;BME280;46846;51.528;5.076;2023-05-01T04:50:21;100939.78;;;12.35;65.51
60974;BME280;46846;51.528;5.076;2023-05-01T04:52:46;100941.63;;;12.33;65.86
60974;BME280;46846;51.528;5.076;2023-05-01T04:55:11;100939.03;;;12.32;65.48
60974;BME280;46846;51.528;5.076;2023-05-01T04:57:37;100944.38;;;12.32;65.52
60974;BME280;46846;51.528;5.076;2023-05-01T05:00:02;100947.09;;;12.30;65.80
60974;BME280;46846;51.528;5.076;2023-05-01T05:02:28;100938.28;;;12.28;65.77
60974;BME280;46846;51.528;5.076;2023-05-01T05:04:53;100941.84;;;12.27;65.58
60974;BME280;46846;51.528;5.076;2023-05-01T05:07:18;100948.06;;;12.27;65.72
60974;BME280;46846;51.528;5.076;2023-05-01T05:09:44;100941.94;;;12.25;65.84
60974;BME280;46846;51.528;5.076;2023-05-01T05:12:09;100944.66;;;12.24;65.94
60974;BME280;46846;51.528;5.076;2023-05-01T05:14:35;100947.38;;;12.22;65.54
60974;BME280;46846;51.528;5.076;2023-05-01T05:17:00;100945.59;;;12.23;65.75
60974;BME280;46846;51.528;5.076;2023-05-01T05:19:25;100951.88;;;12.22;65.54
60974;BME280;46846;51.528;5.076;2023-05-01T05:21:51;100951.03;;;12.20;65.98
60974;BME280;46846;51.528;5.076;2023-05-01T05:24:16;100951.97;;;12.19;65.43
60974;BME280;46846;51.528;5.076;2023-05-01T05:26:41;100950.22;;;12.17;65.89
60974;BME280;46846;51.528;5.076;2023-05-01T05:29:06;100952.03;;;12.17;65.59
60974;BME280;46846;51.528;5.076;2023-05-01T05:31:32;100951.16;;;12.16;65.82
60974;BME280;46846;51.528;5.076;2023-05-01T05:33:57;100950.22;;;12.17;65.80
60974;BME280;46846;51.528;5.076;2023-05-01T05:36:23;100949.44;;;12.15;65.78
60974;BME280;46846;51.528;5.076;2023-05-01T05:38:48;100947.69;;;12.14;65.90
60974;BME280;46846;51.528;5.076;2023-05-01T05:41:14;100952.19;;;12.12;65.79
60974;BME280;46846;51.528;5.076;2023-05-01T05:43:40;100954.88;;;12.12;65.95
60974;BME280;46846;51.528;5.076;2023-05-01T05:46:05;100942.47;;;12.11;66.05
60974;BME280;46846;51.528;5.076;2023-05-01T05:48:30;100946.06;;;12.10;65.73
60974;BME280;46846;51.528;5.076;2023-05-01T05:50:56;100949.63;;;12.11;65.74
60974;BME280;46846;51.528;5.076;2023-05-01T05:53:21;100946.13;;;12.09;66.01
60974;BME280;46846;51.528;5.076;2023-05-01T05:55:46;100943.41;;;12.10;65.67
60974;BME280;46846;51.528;5.076;2023-05-01T05:58:12;100947.94;;;12.08;66.01
60974;BME280;46846;51.528;5.076;2023-05-01T06:00:43;100945.13;;;12.11;65.68
60974;BME280;46846;51.528;5.076;2023-05-01T06:03:10;100943.97;;;12.19;65.59
60974;BME280;46846;51.528;5.076;2023-05-01T06:05:35;100944.78;;;12.21;63.62
60974;BME280;46846;51.528;5.076;2023-05-01T06:08:01;100942.97;;;12.21;64.95
60974;BME280;46846;51.528;5.076;2023-05-01T06:10:26;100946.53;;;12.22;64.66
60974;BME280;46846;51.528;5.076;2023-05-01T06:12:51;100943.72;;;12.25;63.78
60974;BME280;46846;51.528;5.076;2023-05-01T06:15:16;100947.31;;;12.24;64.37
60974;BME280;46846;51.528;5.076;2023-05-01T06:17:42;100947.31;;;12.24;63.15
60974;BME280;46846;51.528;5.076;2023-05-01T06:20:07;100941.09;;;12.23;64.51
60974;BME280;46846;51.528;5.076;2023-05-01T06:22:33;100942.19;;;12.19;64.84
60974;BME280;46846;51.528;5.076;2023-05-01T06:24:58;100945.84;;;12.16;64.49
60974;BME280;46846;51.528;5.076;2023-05-01T06:27:24;100940.50;;;12.16;64.63
60974;BME280;46846;51.528;5.076;2023-05-01T06:29:49;100939.88;;;12.10;65.16
60974;BME280;46846;51.528;5.076;2023-05-01T06:32:15;100947.22;;;12.03;65.23
60974;BME280;46846;51.528;5.076;2023-05-01T06:34:40;100938.34;;;12.02;65.51
60974;BME280;46846;51.528;5.076;2023-05-01T06:37:05;100940.03;;;12.05;65.48
60974;BME280;46846;51.528;5.076;2023-05-01T06:39:31;100943.53;;;12.07;65.58
60974;BME280;46846;51.528;5.076;2023-05-01T06:41:57;100938.34;;;12.02;65.68
60974;BME280;46846;51.528;5.076;2023-05-01T06:44:22;100936.66;;;12.00;65.60
60974;BME280;46846;51.528;5.076;2023-05-01T06:46:48;100937.50;;;12.00;65.67
60974;BME280;46846;51.528;5.076;2023-05-01T06:49:13;100937.31;;;12.07;65.64
60974;BME280;46846;51.528;5.076;2023-05-01T06:51:38;100936.66;;;12.00;65.50
60974;BME280;46846;51.528;5.076;2023-05-01T06:54:03;100936.72;;;11.98;65.83
60974;BME280;46846;51.528;5.076;2023-05-01T06:56:29;100931.44;;;11.97;65.60
60974;BME280;46846;51.528;5.076;2023-05-01T06:58:56;100938.59;;;11.96;66.04
60974;BME280;46846;51.528;5.076;2023-05-01T07:01:21;100940.31;;;11.97;65.78
60974;BME280;46846;51.528;5.076;2023-05-01T07:03:46;100936.66;;;12.00;66.16
60974;BME280;46846;51.528;5.076;2023-05-01T07:06:11;100945.38;;;12.05;65.96
60974;BME280;46846;51.528;5.076;2023-05-01T07:08:37;100941.06;;;12.01;65.73
60974;BME280;46846;51.528;5.076;2023-05-01T07:11:02;100948.25;;;11.99;65.83
60974;BME280;46846;51.528;5.076;2023-05-01T07:13:28;100939.28;;;12.01;65.88
60974;BME280;46846;51.528;5.076;2023-05-01T07:15:53;100945.50;;;12.00;65.97
60974;BME280;46846;51.528;5.076;2023-05-01T07:18:18;100948.25;;;11.99;65.88
60974;BME280;46846;51.528;5.076;2023-05-01T07:20:44;100943.69;;;12.02;65.67
60974;BME280;46846;51.528;5.076;2023-05-01T07:23:09;100953.66;;;11.97;66.14
60974;BME280;46846;51.528;5.076;2023-05-01T07:25:35;100945.47;;;12.02;66.11
60974;BME280;46846;51.528;5.076;2023-05-01T07:28:05;100944.66;;;12.00;66.15
60974;BME280;46846;51.528;5.076;2023-05-01T07:30:32;100949.91;;;12.03;66.13
60974;BME280;46846;51.528;5.076;2023-05-01T07:32:57;100943.69;;;12.02;66.20
60974;BME280;46846;51.528;5.076;2023-05-01T07:35:22;100946.31;;;12.04;66.05
60974;BME280;46846;51.528;5.076;2023-05-01T07:37:48;100948.97;;;12.04;66.00
60974;BME280;46846;51.528;5.076;2023-05-01T07:40:15;100947.94;;;12.08;66.15
60974;BME280;46846;51.528;5.076;2023-05-01T07:42:40;100951.41;;;12.10;66.21
60974;BME280;46846;51.528;5.076;2023-05-01T07:45:06;100951.41;;;12.10;65.79
60974;BME280;46846;51.528;5.076;2023-05-01T07:47:31;100946.81;;;12.14;66.17
60974;BME280;46846;51.528;5.076;2023-05-01T07:49:57;100936.94;;;12.16;65.83
60974;BME280;46846;51.528;5.076;2023-05-01T07:52:22;100936.09;;;12.15;66.12
60974;BME280;46846;51.528;5.076;2023-05-01T07:54:48;100941.19;;;12.22;65.70
60974;BME280;46846;51.528;5.076;2023-05-01T07:57:14;100944.66;;;12.24;65.50
60974;BME280;46846;51.528;5.076;2023-05-01T07:59:40;100932.13;;;12.26;65.52
60974;BME280;46846;51.528;5.076;2023-05-01T08:02:05;100942.78;;;12.26;65.61
60974;BME280;46846;51.528;5.076;2023-05-01T08:04:31;100935.78;;;12.23;65.69
60974;BME280;46846;51.528;5.076;2023-05-01T08:06:56;100949.06;;;12.25;65.94
60974;BME280;46846;51.528;5.076;2023-05-01T08:09:21;100942.00;;;12.24;65.98
60974;BME280;46846;51.528;5.076;2023-05-01T08:11:47;100946.28;;;12.28;65.97
60974;BME280;46846;51.528;5.076;2023-05-01T08:14:12;100931.88;;;12.32;65.97
60974;BME280;46846;51.528;5.076;2023-05-01T08:16:37;100934.44;;;12.35;65.98
60974;BME280;46846;51.528;5.076;2023-05-01T08:19:02;100943.25;;;12.37;65.92
60974;BME280;46846;51.528;5.076;2023-05-01T08:21:28;100943.09;;;12.40;66.00
60974;BME280;46846;51.528;5.076;2023-05-01T08:23:54;100940.53;;;12.39;65.78
60974;BME280;46846;51.528;5.076;2023-05-01T08:26:19;100930.56;;;12.42;65.64
60974;BME280;46846;51.528;5.076;2023-05-01T08:28:45;100936.72;;;12.44;65.93
60974;BME280;46846;51.528;5.076;2023-05-01T08:31:10;100940.34;;;12.43;65.99
60974;BME280;46846;51.528;5.076;2023-05-01T08:33:35;100937.53;;;12.47;66.01
60974;BME280;46846;51.528;5.076;2023-05-01T08:36:01;100939.31;;;12.46;66.01
60974;BME280;46846;51.528;5.076;2023-05-01T08:38:26;100934.81;;;12.48;66.25
60974;BME280;46846;51.528;5.076;2023-05-01T08:40:52;100933.91;;;12.48;66.16
60974;BME280;46846;51.528;5.076;2023-05-01T08:43:18;100937.22;;;12.54;65.81
60974;BME280;46846;51.528;5.076;2023-05-01T08:45:43;100936.19;;;12.57;66.09
60974;BME280;46846;51.528;5.076;2023-05-01T08:48:10;100938.75;;;12.60;65.65
60974;BME280;46846;51.528;5.076;2023-05-01T08:50:37;100938.63;;;12.63;65.98
60974;BME280;46846;51.528;5.076;2023-05-01T08:53:02;100936.78;;;12.65;66.20
60974;BME280;46846;51.528;5.076;2023-05-01T08:55:29;100954.63;;;12.63;66.48
60974;BME280;46846;51.528;5.076;2023-05-01T08:57:54;100944.94;;;12.61;66.12
60974;BME280;46846;51.528;5.076;2023-05-01T09:00:21;100950.13;;;12.65;67.08
60974;BME280;46846;51.528;5.076;2023-05-01T09:02:48;100946.28;;;12.73;66.61
60974;BME280;46846;51.528;5.076;2023-05-01T09:05:15;100941.72;;;12.75;61.77
60974;BME280;46846;51.528;5.076;2023-05-01T09:07:41;100953.06;;;12.80;65.69
60974;BME280;46846;51.528;5.076;2023-05-01T09:10:07;100944.88;;;12.84;66.02
60974;BME280;46846;51.528;5.076;2023-05-01T09:12:32;100953.88;;;12.82;66.80
60974;BME280;46846;51.528;5.076;2023-05-01T09:15:01;100954.63;;;12.85;65.95
60974;BME280;46846;51.528;5.076;2023-05-01T09:17:27;100955.38;;;12.89;65.37
60974;BME280;46846;51.528;5.076;2023-05-01T09:19:55;100959.72;;;12.92;66.26
60974;BME280;46846;51.528;5.076;2023-05-01T09:22:20;100960.44;;;12.95;65.97
60974;BME280;46846;51.528;5.076;2023-05-01T09:24:46;100963.97;;;12.96;65.76
60974;BME280;46846;51.528;5.076;2023-05-01T09:27:11;100962.28;;;12.93;67.42
60974;BME280;46846;51.528;5.076;2023-05-01T09:29:41;100968.72;;;12.89;67.46
60974;BME280;46846;51.528;5.076;2023-05-01T09:34:44;100960.44;;;12.95;67.58
60974;BME280;46846;51.528;5.076;2023-05-01T09:37:31;100971.88;;;12.99;66.95
60974;BME280;46846;51.528;5.076;2023-05-01T09:42:31;100973.47;;;13.03;67.27
60974;BME280;46846;51.528;5.076;2023-05-01T09:44:59;100964.47;;;13.06;67.36
60974;BME280;46846;51.528;5.076;2023-05-01T09:47:25;100963.50;;;13.07;67.35
60974;BME280;46846;51.528;5.076;2023-05-01T09:49:53;100964.47;;;13.06;67.73
60974;BME280;46846;51.528;5.076;2023-05-01T09:52:19;100964.06;;;13.15;66.64
60974;BME280;46846;51.528;5.076;2023-05-01T09:54:44;100969.34;;;13.17;64.34
60974;BME280;46846;51.528;5.076;2023-05-01T09:57:10;100972.59;;;13.23;65.70
60974;BME280;46846;51.528;5.076;2023-05-01T09:59:35;100965.25;;;13.29;65.05
60974;BME280;46846;51.528;5.076;2023-05-01T10:02:01;100969.41;;;13.36;64.11
60974;BME280;46846;51.528;5.076;2023-05-01T10:04:29;100955.03;;;13.38;66.34
60974;BME280;46846;51.528;5.076;2023-05-01T10:06:55;100968.34;;;13.40;65.94
60974;BME280;46846;51.528;5.076;2023-05-01T10:09:26;100961.00;;;13.45;65.71
60974;BME280;46846;51.528;5.076;2023-05-01T10:11:53;100968.91;;;13.48;64.35
60974;BME280;46846;51.528;5.076;2023-05-01T10:14:19;100967.88;;;13.51;64.23
60974;BME280;46846;51.528;5.076;2023-05-01T10:16:45;100976.63;;;13.54;66.29
60974;BME280;46846;51.528;5.076;2023-05-01T10:19:11;100970.22;;;13.59;66.42
60974;BME280;46846;51.528;5.076;2023-05-01T10:21:37;100973.66;;;13.61;65.01
60974;BME280;46846;51.528;5.076;2023-05-01T10:24:02;100974.50;;;13.63;65.74
60974;BME280;46846;51.528;5.076;2023-05-01T10:26:29;100983.16;;;13.68;65.98
60974;BME280;46846;51.528;5.076;2023-05-01T10:28:55;100980.41;;;13.70;65.54
60974;BME280;46846;51.528;5.076;2023-05-01T10:31:23;100977.59;;;13.73;64.07
60974;BME280;46846;51.528;5.076;2023-05-01T10:33:50;100987.16;;;13.78;61.43
60974;BME280;46846;51.528;5.076;2023-05-01T10:36:20;100974.44;;;13.84;64.35
60974;BME280;46846;51.528;5.076;2023-05-01T10:38:47;100984.13;;;13.86;64.03
60974;BME280;46846;51.528;5.076;2023-05-01T10:41:16;100990.34;;;13.87;66.82
60974;BME280;46846;51.528;5.076;2023-05-01T10:43:42;100994.59;;;13.91;60.15
60974;BME280;46846;51.528;5.076;2023-05-01T10:48:54;100983.56;;;13.99;66.17
60974;BME280;46846;51.528;5.076;2023-05-01T10:51:22;100987.97;;;14.00;61.99
60974;BME280;46846;51.528;5.076;2023-05-01T10:54:33;100991.38;;;14.03;64.77
60974;BME280;46846;51.528;5.076;2023-05-01T10:59:02;101005.25;;;14.12;65.26
60974;BME280;46846;51.528;5.076;2023-05-01T11:01:34;100988.03;;;14.17;64.72
60974;BME280;46846;51.528;5.076;2023-05-01T11:06:29;100989.88;;;14.17;66.09
60974;BME280;46846;51.528;5.076;2023-05-01T11:08:54;100991.38;;;14.22;65.79
60974;BME280;46846;51.528;5.076;2023-05-01T11:14:01;100998.16;;;14.30;66.46
60974;BME280;46846;51.528;5.076;2023-05-01T11:16:39;100996.16;;;14.35;66.85
60974;BME280;46846;51.528;5.076;2023-05-01T11:19:09;100999.53;;;14.39;66.68
60974;BME280;46846;51.528;5.076;2023-05-01T11:21:35;101001.22;;;14.41;66.76
60974;BME280;46846;51.528;5.076;2023-05-01T11:24:10;100995.69;;;14.44;63.66
60974;BME280;46846;51.528;5.076;2023-05-01T11:26:36;100996.41;;;14.48;66.57
60974;BME280;46846;51.528;5.076;2023-05-01T11:29:02;101000.69;;;14.52;66.67
60974;BME280;46846;51.528;5.076;2023-05-01T11:31:28;101000.47;;;14.57;66.62
60974;BME280;46846;51.528;5.076;2023-05-01T11:33:55;101004.78;;;14.59;67.32
60974;BME280;46846;51.528;5.076;2023-05-01T11:36:20;101005.50;;;14.63;65.86
60974;BME280;46846;51.528;5.076;2023-05-01T11:38:53;101005.19;;;14.69;66.15
60974;BME280;46846;51.528;5.076;2023-05-01T11:41:20;101007.81;;;14.71;66.60
60974;BME280;46846;51.528;5.076;2023-05-01T11:46:27;100999.59;;;14.75;66.32
60974;BME280;46846;51.528;5.076;2023-05-01T11:48:56;101007.38;;;14.80;66.55
60974;BME280;46846;51.528;5.076;2023-05-01T11:51:21;101010.78;;;14.84;66.08
60974;BME280;46846;51.528;5.076;2023-05-01T11:53:57;101016.94;;;14.86;66.45
60974;BME280;46846;51.528;5.076;2023-05-01T11:56:23;101017.03;;;14.84;66.88
60974;BME280;46846;51.528;5.076;2023-05-01T11:58:48;101006.00;;;14.90;66.94
60974;BME280;46846;51.528;5.076;2023-05-01T12:01:14;101009.41;;;14.94;66.54
60974;BME280;46846;51.528;5.076;2023-05-01T12:03:41;101002.06;;;14.98;65.29
60974;BME280;46846;51.528;5.076;2023-05-01T12:06:08;101009.88;;;15.02;65.50
60974;BME280;46846;51.528;5.076;2023-05-01T12:08:33;101013.34;;;15.04;66.29
60974;BME280;46846;51.528;5.076;2023-05-01T12:10:59;101009.63;;;15.07;67.17
60974;BME280;46846;51.528;5.076;2023-05-01T12:13:24;101011.19;;;15.11;66.99
60974;BME280;46846;51.528;5.076;2023-05-01T12:15:51;101013.81;;;15.13;66.29
60974;BME280;46846;51.528;5.076;2023-05-01T12:18:17;101011.13;;;15.13;67.07
60974;BME280;46846;51.528;5.076;2023-05-01T12:20:46;101012.78;;;15.15;67.25
60974;BME280;46846;51.528;5.076;2023-05-01T12:23:13;101018.88;;;15.19;67.20
60974;BME280;46846;51.528;5.076;2023-05-01T12:25:40;101009.03;;;15.20;62.70
60974;BME280;46846;51.528;5.076;2023-05-01T12:28:11;101005.03;;;15.27;66.26
60974;BME280;46846;51.528;5.076;2023-05-01T12:30:38;101005.75;;;15.30;66.10
60974;BME280;46846;51.528;5.076;2023-05-01T12:33:07;101007.41;;;15.33;66.38
60974;BME280;46846;51.528;5.076;2023-05-01T12:35:33;101004.59;;;15.36;66.43
60974;BME280;46846;51.528;5.076;2023-05-01T12:37:58;101001.81;;;15.38;65.90
60974;BME280;46846;51.528;5.076;2023-05-01T12:40:24;101000.00;;;15.38;66.38
60974;BME280;46846;51.528;5.076;2023-05-01T12:42:56;100999.06;;;15.39;63.86
60974;BME280;46846;51.528;5.076;2023-05-01T12:45:24;101001.66;;;15.41;66.21
60974;BME280;46846;51.528;5.076;2023-05-01T12:47:49;101005.13;;;15.43;66.11
60974;BME280;46846;51.528;5.076;2023-05-01T12:50:15;101006.78;;;15.45;66.24
60974;BME280;46846;51.528;5.076;2023-05-01T12:52:41;100996.06;;;15.45;65.82
60974;BME280;46846;51.528;5.076;2023-05-01T12:55:06;100998.56;;;15.49;64.94
60974;BME280;46846;51.528;5.076;2023-05-01T12:57:33;100998.56;;;15.49;66.25
60974;BME280;46846;51.528;5.076;2023-05-01T12:59:59;100999.38;;;15.51;65.44
60974;BME280;46846;51.528;5.076;2023-05-01T13:02:29;100992.28;;;15.50;63.88
60974;BME280;46846;51.528;5.076;2023-05-01T13:05:04;100993.19;;;15.49;66.34
60974;BME280;46846;51.528;5.076;2023-05-01T13:07:30;100998.56;;;15.49;66.11
60974;BME280;46846;51.528;5.076;2023-05-01T13:09:56;101003.94;;;15.49;66.18
60974;BME280;46846;51.528;5.076;2023-05-01T13:12:22;101000.47;;;15.47;66.42
60974;BME280;46846;51.528;5.076;2023-05-01T13:14:48;101009.22;;;15.50;66.81
60974;BME280;46846;51.528;5.076;2023-05-01T13:17:20;101010.25;;;15.48;66.65
60974;BME280;46846;51.528;5.076;2023-05-01T13:19:46;101006.72;;;15.47;66.33